Ship Status Report: callsign BAREU66

sailwx.info

Track history (hours):
 
Tides and Currents Weather Stations Pressure Air Temp Water Temp Dewpoint Dewpoint Depression Visibility Wind Speed Wind Dir Waves Ship Positions

Callsign BAREU66 (name unknown)

Last reported at 2018-Jun-25 05:00 UTC. Time now 2018-Jun-25 06:11 UTC.
Position N 42°48' E 003°36'.

Barometer 1016.4 mb

Date/timePositionNaut miles runAvg speedWind from/ knotsBaromVisibWave heightAir tempDewpointWater temp
2018-Jun-25 05:00N 42°48' E 003°36'1918.5 1016.4
2018-Jun-25 04:00N 42°30' E 003°30'1918.5 1016.0
2018-Jun-25 03:00N 42°12' E 003°24'1918.5 1016.1
2018-Jun-25 02:00N 41°54' E 003°18'1515.0 1015.0
2018-Jun-25 01:00N 41°42' E 003°06'1312.8 1016.2
2018-Jun-25 00:00N 41°30' E 003°00'2322.5 1016.7
2018-Jun-24 23:00N 41°12' E 002°42'1515.0 1017.1
2018-Jun-24 22:00N 41°00' E 002°30'1515.0 1017.1
2018-Jun-24 21:00N 40°48' E 002°18'2020.2 1016.9
2018-Jun-24 20:00N 40°30' E 002°06'1515.1 1016.2
2018-Jun-24 19:00N 40°18' E 001°54'1515.1 1015.6
2018-Jun-24 18:00N 40°06' E 001°42'2020.2 1015.5
2018-Jun-24 17:00N 39°48' E 001°30'1515.1 1015.3
2018-Jun-24 16:00N 39°36' E 001°18'1515.2 1015.9
2018-Jun-24 15:00N 39°24' E 001°06'2322.8 1015.7
2018-Jun-24 14:00N 39°06' E 000°48'2322.8 1016.2
2018-Jun-24 13:00N 38°48' E 000°30'2020.3 1016.5
2018-Jun-24 12:00N 38°30' E 000°18'2020.3 1016.9
2018-Jun-24 11:00N 38°12' E 000°06'2322.9 1017.0
2018-Jun-24 10:00N 37°54' W 000°12'1515.3 1016.6
2018-Jun-24 09:00N 37°42' W 000°24'2323.0 1016.6
2018-Jun-24 08:00N 37°24' W 000°42'1918.7 1016.1
2018-Jun-24 07:00N 37°12' W 001°00'1918.7 1015.4
2018-Jun-24 06:00N 37°00' W 001°18'1515.4 1014.7
2018-Jun-24 05:00N 36°48' W 001°30'1918.8 1013.7
2018-Jun-24 04:00N 36°36' W 001°48'1515.4 1012.6
2018-Jun-24 03:00N 36°24' W 002°00'2020.2 1012.0
2018-Jun-24 02:00N 36°18' W 002°24'1919.3 1011.3
2018-Jun-24 01:00N 36°18' W 002°48'1514.5 1012.2
2018-Jun-24 00:00N 36°18' W 003°06'2020.3 1013.8
2018-Jun-23 23:00N 36°12' W 003°30'1919.4 1014.5
2018-Jun-23 22:00N 36°12' W 003°54'2020.3 1015.3
2018-Jun-23 21:00N 36°06' W 004°18'1919.4 1015.1
2018-Jun-23 20:00N 36°06' W 004°42'2020.3 1014.6
2018-Jun-23 19:00N 36°00' W 005°06'1514.6 1014.0
2018-Jun-23 18:00N 36°00' W 005°24'8 1.1 1012.7
2018-Jun-23 11:00N 35°54' W 005°30'1111.4 1015.9
2018-Jun-23 10:00N 36°00' W 005°18'2020.3 1017.0
2018-Jun-23 09:00N 36°06' W 004°54'1919.4 1016.8
2018-Jun-23 08:00N 36°06' W 004°30'2020.3 1016.8
2018-Jun-23 07:00N 36°12' W 004°06'1919.4 1016.4
2018-Jun-23 06:00N 36°12' W 003°42'2020.3 1016.2
2018-Jun-23 05:00N 36°18' W 003°18'2524.9 1015.9
2018-Jun-23 04:00N 36°24' W 002°48'1919.3 1015.3
2018-Jun-23 03:00N 36°24' W 002°24'2322.7 1015.3
2018-Jun-23 02:00N 36°36' W 002°00'2322.7 1016.0
2018-Jun-23 01:00N 36°48' W 001°36'2323.0 1016.3
2018-Jun-23 00:00N 37°06' W 001°18'2322.6 1016.4
2018-Jun-22 23:00N 37°18' W 000°54'1918.7 1016.9
2018-Jun-22 22:00N 37°30' W 000°36'2323.0 1017.5
2018-Jun-22 21:00N 37°48' W 000°18'2020.3 1017.6
2018-Jun-22 20:00N 38°06' W 000°06'2322.9 1016.6
2018-Jun-22 19:00N 38°24' E 000°12'2020.3 1016.1
2018-Jun-22 18:00N 38°42' E 000°24'2625.8 1015.4
2018-Jun-22 17:00N 39°06' E 000°36'2020.3 1014.9
2018-Jun-22 16:00N 39°24' E 000°48'2322.7 1015.4
2018-Jun-22 15:00N 39°42' E 001°06'2020.2 1015.7
2018-Jun-22 14:00N 40°00' E 001°18'2020.2 1016.1
2018-Jun-22 13:00N 40°18' E 001°30'2322.6 1016.6
2018-Jun-22 12:00N 40°36' E 001°48'2020.2 1016.9
2018-Jun-22 11:00N 40°54' E 002°00'2625.6 1017.0
2018-Jun-22 10:00N 41°18' E 002°12'0 0.0 1017.0
2018-Jun-22 05:00N 41°18' E 002°12'9 9.0 1017.0
2018-Jun-22 04:00N 41°18' E 002°24'2221.6 1016.0
2018-Jun-22 03:00N 41°30' E 002°48'2221.6 1016.5
2018-Jun-22 02:00N 41°42' E 003°12'1918.9 1015.8
2018-Jun-22 01:00N 41°48' E 003°36'2525.3 1015.7
2018-Jun-22 00:00N 42°00' E 004°06'2121.5 1015.6
2018-Jun-21 23:00N 42°12' E 004°30'1918.8 1014.9
2018-Jun-21 22:00N 42°18' E 004°54'2121.4 1014.4
2018-Jun-21 21:00N 42°30' E 005°18'2121.4 1014.7
2018-Jun-21 20:00N 42°42' E 005°42'2322.8 1014.0
2018-Jun-21 19:00N 42°48' E 006°12'2121.3 1013.7
2018-Jun-21 18:00N 43°00' E 006°36'2121.2 1012.7
2018-Jun-21 17:00N 43°12' E 007°00'1817.8 1012.5
2018-Jun-21 16:00N 43°24' E 007°18'2121.1 1014.1
2018-Jun-21 15:00N 43°36' E 007°42'2121.1 1014.6
2018-Jun-21 14:00N 43°48' E 008°06'2525.0 1014.7
2018-Jun-21 13:00N 44°06' E 008°30'2121.0 1015.7
2018-Jun-21 12:00N 44°18' E 008°54'7 1.1 1016.3
2018-Jun-21 05:00N 44°24' E 009°00'2222.1 1016.9
2018-Jun-21 04:00N 44°06' E 008°42'2121.0 1016.6
2018-Jun-21 03:00N 43°54' E 008°18'1817.7 1016.6
2018-Jun-21 02:00N 43°42' E 008°00'2121.1 1017.0
2018-Jun-21 01:00N 43°30' E 007°36'2121.2 1017.3
2018-Jun-21 00:00N 43°18' E 007°12'1414.4 1017.7
2018-Jun-20 23:00N 43°12' E 006°54'2121.2 1018.1
2018-Jun-20 22:00N 43°00' E 006°30'2121.3 1018.5
2018-Jun-20 21:00N 42°48' E 006°06'1514.5 1018.8
2018-Jun-20 20:00N 42°42' E 005°48'2525.1 1018.5
2018-Jun-20 19:00N 42°30' E 005°18'1514.6 1018.5
2018-Jun-20 18:00N 42°24' E 005°00'2121.4 1018.5
2018-Jun-20 17:00N 42°12' E 004°36'2323.0 1018.3
2018-Jun-20 16:00N 42°06' E 004°06'1818.0 1018.5
2018-Jun-20 15:00N 41°54' E 003°48'2221.5 1018.8
2018-Jun-20 14:00N 41°42' E 003°24'1918.9 1019.3
2018-Jun-20 13:00N 41°36' E 003°00'2221.6 1019.5
2018-Jun-20 12:00N 41°24' E 002°36'1919.0 1019.7
2018-Jun-20 11:00N 41°18' E 002°12'6 1.5 1020.0
2018-Jun-20 07:00N 41°24' E 002°12'1212.0 1020.0
2018-Jun-20 06:00N 41°12' E 002°12'1515.0 1019.4
2018-Jun-20 05:00N 41°00' E 002°00'2020.2 1019.4
2018-Jun-20 04:00N 40°42' E 001°48'1515.1 1019.4
2018-Jun-20 03:00N 40°30' E 001°36'1918.6 1019.4
2018-Jun-20 02:00N 40°12' E 001°30'1515.1 1019.7
2018-Jun-20 01:00N 40°00' E 001°18'2020.2 1020.0
2018-Jun-20 00:00N 39°42' E 001°06'1312.9 1020.2
2018-Jun-19 23:00N 39°30' E 001°00'2020.3 1020.4
2018-Jun-19 22:00N 39°12' E 000°48'1312.9 1020.5
2018-Jun-19 21:00N 39°00' E 000°42'2020.3 1020.4
2018-Jun-19 20:00N 38°42' E 000°30'1515.2 1020.2
2018-Jun-19 19:00N 38°30' E 000°18'1515.2 1020.3
2018-Jun-19 18:00N 38°18' E 000°06'2020.3 1020.2
2018-Jun-19 17:00N 38°00' W 000°06'1515.3 1020.1
2018-Jun-19 16:00N 37°48' W 000°18'1515.3 1020.4
2018-Jun-19 15:00N 37°36' W 000°30'1515.3 1020.4
2018-Jun-19 14:00N 37°24' W 000°42'1918.7 1020.5
2018-Jun-19 13:00N 37°12' W 001°00'1918.7 1020.9
2018-Jun-19 12:00N 37°00' W 001°18'1515.4 1020.9
2018-Jun-19 11:00N 36°48' W 001°30'1615.6 1021.0
2018-Jun-19 10:00N 36°42' W 001°48'1515.4 1020.8
2018-Jun-19 09:00N 36°30' W 002°00'1918.8 1020.3
2018-Jun-19 08:00N 36°18' W 002°18'1514.5 1019.3
2018-Jun-19 07:00N 36°18' W 002°36'1919.3 1019.1
2018-Jun-19 06:00N 36°18' W 003°00'1615.7 1019.5
2018-Jun-19 05:00N 36°12' W 003°18'1514.5 1019.6
2018-Jun-19 04:00N 36°12' W 003°36'2020.3 1019.3
2018-Jun-19 03:00N 36°06' W 004°00'1514.5 1019.1
2018-Jun-19 02:00N 36°06' W 004°18'1919.4 1018.4
2018-Jun-19 01:00N 36°06' W 004°42'1615.7 1017.8
2018-Jun-19 00:00N 36°00' W 005°00'1919.4 1019.0
2018-Jun-18 23:00N 36°00' W 005°24'8 1.5 1018.1
2018-Jun-18 18:00N 35°54' W 005°30'8 7.7 1017.5
2018-Jun-18 17:00N 36°00' W 005°24'1615.7 1018.0
2018-Jun-18 16:00N 36°06' W 005°06'1919.4 1018.4
2018-Jun-18 15:00N 36°06' W 004°42'1919.4 1018.7
2018-Jun-18 14:00N 36°06' W 004°18'1615.7 1018.8
2018-Jun-18 13:00N 36°12' W 004°00'1919.4 1018.7
2018-Jun-18 12:00N 36°12' W 003°36'2020.3 1018.9
2018-Jun-18 11:00N 36°18' W 003°12'2020.2 1019.6
2018-Jun-18 10:00N 36°24' W 002°48'1919.3 1019.9
2018-Jun-18 09:00N 36°24' W 002°24'2020.2 1019.6
2018-Jun-18 08:00N 36°30' W 002°00'2323.1 1020.1
2018-Jun-18 07:00N 36°48' W 001°42'1918.7 1020.4
2018-Jun-18 06:00N 37°00' W 001°24'1918.7 1020.4
2018-Jun-18 05:00N 37°12' W 001°06'1918.7 1020.1
2018-Jun-18 04:00N 37°24' W 000°48'2323.0 1020.0
2018-Jun-18 03:00N 37°42' W 000°30'2020.3 1019.7
2018-Jun-18 02:00N 38°00' W 000°18'2020.3 1019.7
2018-Jun-18 01:00N 38°18' W 000°06'1918.5 1020.3
2018-Jun-18 00:00N 38°30' E 000°12'2020.3 1020.4
2018-Jun-17 23:00N 38°48' E 000°24'2020.3 1019.9
2018-Jun-17 22:00N 39°06' E 000°36'2020.3 1020.1
2018-Jun-17 21:00N 39°24' E 000°48'1515.2 1020.0
2018-Jun-17 20:00N 39°36' E 001°00'2020.2 1019.5
2018-Jun-17 19:00N 39°54' E 001°12'2020.2 1019.0
2018-Jun-17 18:00N 40°12' E 001°24'2020.2 1019.2
2018-Jun-17 17:00N 40°30' E 001°36'2020.2 1018.8
2018-Jun-17 16:00N 40°48' E 001°48'2020.2 1018.4
2018-Jun-17 15:00N 41°06' E 002°00'1515.0 1019.3
2018-Jun-17 14:00N 41°18' E 002°12'6 2.0 1019.9
2018-Jun-17 11:00N 41°24' E 002°12'8 7.5 1020.4
2018-Jun-17 10:00N 41°18' E 002°18'1818.1 1019.8
2018-Jun-17 09:00N 41°30' E 002°36'2221.6 1019.9
2018-Jun-17 08:00N 41°42' E 003°00'1818.0 1019.7
2018-Jun-17 07:00N 41°54' E 003°18'2222.4 1019.4
2018-Jun-17 06:00N 42°12' E 003°36'2121.4 1017.7
2018-Jun-17 05:00N 42°24' E 004°00'1918.7 1015.3
2018-Jun-17 04:00N 42°30' E 004°24'1918.7 1015.1
2018-Jun-17 03:00N 42°36' E 004°48'1918.6 1013.9
2018-Jun-17 02:00N 42°42' E 005°12'1918.6 1012.6
2018-Jun-17 01:00N 42°48' E 005°36'2322.8 1012.0
2018-Jun-17 00:00N 42°54' E 006°06'1918.6 1012.0
2018-Jun-16 23:00N 43°00' E 006°30'2121.2 1012.8
2018-Jun-16 22:00N 43°12' E 006°54'1817.8 1012.6
2018-Jun-16 21:00N 43°24' E 007°12'2121.1 1012.3
2018-Jun-16 20:00N 43°36' E 007°36'2121.1 1012.2
2018-Jun-16 19:00N 43°48' E 008°00'2121.0 1011.2
2018-Jun-16 18:00N 44°00' E 008°24'1817.6 1010.9
2018-Jun-16 17:00N 44°12' E 008°42'15 1.5 1012.0
2018-Jun-16 07:00N 44°24' E 008°54'6 6.0 1013.3
2018-Jun-16 06:00N 44°18' E 008°54'1817.6 1012.6
2018-Jun-16 05:00N 44°06' E 008°36'2121.0 1012.3
2018-Jun-16 04:00N 43°54' E 008°12'1817.7 1012.0
2018-Jun-16 03:00N 43°42' E 007°54'2121.1 1011.2
2018-Jun-16 02:00N 43°30' E 007°30'1817.7 1011.7
2018-Jun-16 01:00N 43°18' E 007°12'2121.2 1011.5
2018-Jun-16 00:00N 43°06' E 006°48'1817.8 1011.5
2018-Jun-15 23:00N 42°54' E 006°30'1918.6 1011.9
2018-Jun-15 22:00N 42°48' E 006°06'1918.6 1012.0
2018-Jun-15 21:00N 42°42' E 005°42'2525.1 1012.5
2018-Jun-15 20:00N 42°30' E 005°12'1918.7 1012.7
2018-Jun-15 19:00N 42°24' E 004°48'2121.4 1013.1
2018-Jun-15 18:00N 42°12' E 004°24'1918.8 1013.5
2018-Jun-15 17:00N 42°06' E 004°00'1918.8 1014.3
2018-Jun-15 16:00N 42°00' E 003°36'2221.5 1013.9
2018-Jun-15 15:00N 41°48' E 003°12'1818.0 1015.0
2018-Jun-15 14:00N 41°36' E 002°54'2221.6 1015.0
2018-Jun-15 13:00N 41°24' E 002°30'1514.8 1015.1
2018-Jun-15 12:00N 41°18' E 002°12'6 2.0 1015.2
2018-Jun-15 09:00N 41°24' E 002°12'1212.0 1015.7
2018-Jun-15 08:00N 41°12' E 002°12'0 0.0 1015.5
2018-Jun-15 07:00N 41°12' E 002°12'8 7.5 1015.0
2018-Jun-15 06:00N 41°06' E 002°06'8 7.5 1014.8
2018-Jun-15 05:00N 41°00' E 002°00'   1014.2
Track history (hours):
 
Tides and Currents Weather Stations Pressure Air Temp Water Temp Dewpoint Dewpoint Depression Visibility Wind Speed Wind Dir Waves Ship Positions

Callsign BAREU66 (name unknown)

Last reported at 2018-Jun-25 05:00 UTC. Time now 2018-Jun-25 06:11 UTC.
Position N 42°48' E 003°36'.

Barometer 1016.4 mb

Date/timePositionNaut miles runAvg speedWind from/ knotsBaromVisibWave heightAir tempDewpointWater temp
2018-Jun-25 05:00N 42°48' E 003°36'1918.5 1016.4
2018-Jun-25 04:00N 42°30' E 003°30'1918.5 1016.0
2018-Jun-25 03:00N 42°12' E 003°24'1918.5 1016.1
2018-Jun-25 02:00N 41°54' E 003°18'1515.0 1015.0
2018-Jun-25 01:00N 41°42' E 003°06'1312.8 1016.2
2018-Jun-25 00:00N 41°30' E 003°00'2322.5 1016.7
2018-Jun-24 23:00N 41°12' E 002°42'1515.0 1017.1
2018-Jun-24 22:00N 41°00' E 002°30'1515.0 1017.1
2018-Jun-24 21:00N 40°48' E 002°18'2020.2 1016.9
2018-Jun-24 20:00N 40°30' E 002°06'1515.1 1016.2
2018-Jun-24 19:00N 40°18' E 001°54'1515.1 1015.6
2018-Jun-24 18:00N 40°06' E 001°42'2020.2 1015.5
2018-Jun-24 17:00N 39°48' E 001°30'1515.1 1015.3
2018-Jun-24 16:00N 39°36' E 001°18'1515.2 1015.9
2018-Jun-24 15:00N 39°24' E 001°06'2322.8 1015.7
2018-Jun-24 14:00N 39°06' E 000°48'2322.8 1016.2
2018-Jun-24 13:00N 38°48' E 000°30'2020.3 1016.5
2018-Jun-24 12:00N 38°30' E 000°18'2020.3 1016.9
2018-Jun-24 11:00N 38°12' E 000°06'2322.9 1017.0
2018-Jun-24 10:00N 37°54' W 000°12'1515.3 1016.6
2018-Jun-24 09:00N 37°42' W 000°24'2323.0 1016.6
2018-Jun-24 08:00N 37°24' W 000°42'1918.7 1016.1
2018-Jun-24 07:00N 37°12' W 001°00'1918.7 1015.4
2018-Jun-24 06:00N 37°00' W 001°18'1515.4 1014.7
2018-Jun-24 05:00N 36°48' W 001°30'1918.8 1013.7
2018-Jun-24 04:00N 36°36' W 001°48'1515.4 1012.6
2018-Jun-24 03:00N 36°24' W 002°00'2020.2 1012.0
2018-Jun-24 02:00N 36°18' W 002°24'1919.3 1011.3
2018-Jun-24 01:00N 36°18' W 002°48'1514.5 1012.2
2018-Jun-24 00:00N 36°18' W 003°06'2020.3 1013.8
2018-Jun-23 23:00N 36°12' W 003°30'1919.4 1014.5
2018-Jun-23 22:00N 36°12' W 003°54'2020.3 1015.3
2018-Jun-23 21:00N 36°06' W 004°18'1919.4 1015.1
2018-Jun-23 20:00N 36°06' W 004°42'2020.3 1014.6
2018-Jun-23 19:00N 36°00' W 005°06'1514.6 1014.0
2018-Jun-23 18:00N 36°00' W 005°24'8 1.1 1012.7
2018-Jun-23 11:00N 35°54' W 005°30'1111.4 1015.9
2018-Jun-23 10:00N 36°00' W 005°18'2020.3 1017.0
2018-Jun-23 09:00N 36°06' W 004°54'1919.4 1016.8
2018-Jun-23 08:00N 36°06' W 004°30'2020.3 1016.8
2018-Jun-23 07:00N 36°12' W 004°06'1919.4 1016.4
2018-Jun-23 06:00N 36°12' W 003°42'2020.3 1016.2
2018-Jun-23 05:00N 36°18' W 003°18'2524.9 1015.9
2018-Jun-23 04:00N 36°24' W 002°48'1919.3 1015.3
2018-Jun-23 03:00N 36°24' W 002°24'2322.7 1015.3
2018-Jun-23 02:00N 36°36' W 002°00'2322.7 1016.0
2018-Jun-23 01:00N 36°48' W 001°36'2323.0 1016.3
2018-Jun-23 00:00N 37°06' W 001°18'2322.6 1016.4
2018-Jun-22 23:00N 37°18' W 000°54'1918.7 1016.9
2018-Jun-22 22:00N 37°30' W 000°36'2323.0 1017.5
2018-Jun-22 21:00N 37°48' W 000°18'2020.3 1017.6
2018-Jun-22 20:00N 38°06' W 000°06'2322.9 1016.6
2018-Jun-22 19:00N 38°24' E 000°12'2020.3 1016.1
2018-Jun-22 18:00N 38°42' E 000°24'2625.8 1015.4
2018-Jun-22 17:00N 39°06' E 000°36'2020.3 1014.9
2018-Jun-22 16:00N 39°24' E 000°48'2322.7 1015.4
2018-Jun-22 15:00N 39°42' E 001°06'2020.2 1015.7
2018-Jun-22 14:00N 40°00' E 001°18'2020.2 1016.1
2018-Jun-22 13:00N 40°18' E 001°30'2322.6 1016.6
2018-Jun-22 12:00N 40°36' E 001°48'2020.2 1016.9
2018-Jun-22 11:00N 40°54' E 002°00'2625.6 1017.0
2018-Jun-22 10:00N 41°18' E 002°12'0 0.0 1017.0
2018-Jun-22 05:00N 41°18' E 002°12'9 9.0 1017.0
2018-Jun-22 04:00N 41°18' E 002°24'2221.6 1016.0
2018-Jun-22 03:00N 41°30' E 002°48'2221.6 1016.5
2018-Jun-22 02:00N 41°42' E 003°12'1918.9 1015.8
2018-Jun-22 01:00N 41°48' E 003°36'2525.3 1015.7
2018-Jun-22 00:00N 42°00' E 004°06'2121.5 1015.6
2018-Jun-21 23:00N 42°12' E 004°30'1918.8 1014.9
2018-Jun-21 22:00N 42°18' E 004°54'2121.4 1014.4
2018-Jun-21 21:00N 42°30' E 005°18'2121.4 1014.7
2018-Jun-21 20:00N 42°42' E 005°42'2322.8 1014.0
2018-Jun-21 19:00N 42°48' E 006°12'2121.3 1013.7
2018-Jun-21 18:00N 43°00' E 006°36'2121.2 1012.7
2018-Jun-21 17:00N 43°12' E 007°00'1817.8 1012.5
2018-Jun-21 16:00N 43°24' E 007°18'2121.1 1014.1
2018-Jun-21 15:00N 43°36' E 007°42'2121.1 1014.6
2018-Jun-21 14:00N 43°48' E 008°06'2525.0 1014.7
2018-Jun-21 13:00N 44°06' E 008°30'2121.0 1015.7
2018-Jun-21 12:00N 44°18' E 008°54'7 1.1 1016.3
2018-Jun-21 05:00N 44°24' E 009°00'2222.1 1016.9
2018-Jun-21 04:00N 44°06' E 008°42'2121.0 1016.6
2018-Jun-21 03:00N 43°54' E 008°18'1817.7 1016.6
2018-Jun-21 02:00N 43°42' E 008°00'2121.1 1017.0
2018-Jun-21 01:00N 43°30' E 007°36'2121.2 1017.3
2018-Jun-21 00:00N 43°18' E 007°12'1414.4 1017.7
2018-Jun-20 23:00N 43°12' E 006°54'2121.2 1018.1
2018-Jun-20 22:00N 43°00' E 006°30'2121.3 1018.5
2018-Jun-20 21:00N 42°48' E 006°06'1514.5 1018.8
2018-Jun-20 20:00N 42°42' E 005°48'2525.1 1018.5
2018-Jun-20 19:00N 42°30' E 005°18'1514.6 1018.5
2018-Jun-20 18:00N 42°24' E 005°00'2121.4 1018.5
2018-Jun-20 17:00N 42°12' E 004°36'2323.0 1018.3
2018-Jun-20 16:00N 42°06' E 004°06'1818.0 1018.5
2018-Jun-20 15:00N 41°54' E 003°48'2221.5 1018.8
2018-Jun-20 14:00N 41°42' E 003°24'1918.9 1019.3
2018-Jun-20 13:00N 41°36' E 003°00'2221.6 1019.5
2018-Jun-20 12:00N 41°24' E 002°36'1919.0 1019.7
2018-Jun-20 11:00N 41°18' E 002°12'6 1.5 1020.0
2018-Jun-20 07:00N 41°24' E 002°12'1212.0 1020.0
2018-Jun-20 06:00N 41°12' E 002°12'1515.0 1019.4
2018-Jun-20 05:00N 41°00' E 002°00'2020.2 1019.4
2018-Jun-20 04:00N 40°42' E 001°48'1515.1 1019.4
2018-Jun-20 03:00N 40°30' E 001°36'1918.6 1019.4
2018-Jun-20 02:00N 40°12' E 001°30'1515.1 1019.7
2018-Jun-20 01:00N 40°00' E 001°18'2020.2 1020.0
2018-Jun-20 00:00N 39°42' E 001°06'1312.9 1020.2
2018-Jun-19 23:00N 39°30' E 001°00'2020.3 1020.4
2018-Jun-19 22:00N 39°12' E 000°48'1312.9 1020.5
2018-Jun-19 21:00N 39°00' E 000°42'2020.3 1020.4
2018-Jun-19 20:00N 38°42' E 000°30'1515.2 1020.2
2018-Jun-19 19:00N 38°30' E 000°18'1515.2 1020.3
2018-Jun-19 18:00N 38°18' E 000°06'2020.3 1020.2
2018-Jun-19 17:00N 38°00' W 000°06'1515.3 1020.1
2018-Jun-19 16:00N 37°48' W 000°18'1515.3 1020.4
2018-Jun-19 15:00N 37°36' W 000°30'1515.3 1020.4
2018-Jun-19 14:00N 37°24' W 000°42'1918.7 1020.5
2018-Jun-19 13:00N 37°12' W 001°00'1918.7 1020.9
2018-Jun-19 12:00N 37°00' W 001°18'1515.4 1020.9
2018-Jun-19 11:00N 36°48' W 001°30'1615.6 1021.0
2018-Jun-19 10:00N 36°42' W 001°48'1515.4 1020.8
2018-Jun-19 09:00N 36°30' W 002°00'1918.8 1020.3
2018-Jun-19 08:00N 36°18' W 002°18'1514.5 1019.3
2018-Jun-19 07:00N 36°18' W 002°36'1919.3 1019.1
2018-Jun-19 06:00N 36°18' W 003°00'1615.7 1019.5
2018-Jun-19 05:00N 36°12' W 003°18'1514.5 1019.6
2018-Jun-19 04:00N 36°12' W 003°36'2020.3 1019.3
2018-Jun-19 03:00N 36°06' W 004°00'1514.5 1019.1
2018-Jun-19 02:00N 36°06' W 004°18'1919.4 1018.4
2018-Jun-19 01:00N 36°06' W 004°42'1615.7 1017.8
2018-Jun-19 00:00N 36°00' W 005°00'1919.4 1019.0
2018-Jun-18 23:00N 36°00' W 005°24'8 1.5 1018.1
2018-Jun-18 18:00N 35°54' W 005°30'8 7.7 1017.5
2018-Jun-18 17:00N 36°00' W 005°24'1615.7 1018.0
2018-Jun-18 16:00N 36°06' W 005°06'1919.4 1018.4
2018-Jun-18 15:00N 36°06' W 004°42'1919.4 1018.7
2018-Jun-18 14:00N 36°06' W 004°18'1615.7 1018.8
2018-Jun-18 13:00N 36°12' W 004°00'1919.4 1018.7
2018-Jun-18 12:00N 36°12' W 003°36'2020.3 1018.9
2018-Jun-18 11:00N 36°18' W 003°12'2020.2 1019.6
2018-Jun-18 10:00N 36°24' W 002°48'1919.3 1019.9
2018-Jun-18 09:00N 36°24' W 002°24'2020.2 1019.6
2018-Jun-18 08:00N 36°30' W 002°00'2323.1 1020.1
2018-Jun-18 07:00N 36°48' W 001°42'1918.7 1020.4
2018-Jun-18 06:00N 37°00' W 001°24'1918.7 1020.4
2018-Jun-18 05:00N 37°12' W 001°06'1918.7 1020.1
2018-Jun-18 04:00N 37°24' W 000°48'2323.0 1020.0
2018-Jun-18 03:00N 37°42' W 000°30'2020.3 1019.7
2018-Jun-18 02:00N 38°00' W 000°18'2020.3 1019.7
2018-Jun-18 01:00N 38°18' W 000°06'1918.5 1020.3
2018-Jun-18 00:00N 38°30' E 000°12'2020.3 1020.4
2018-Jun-17 23:00N 38°48' E 000°24'2020.3 1019.9
2018-Jun-17 22:00N 39°06' E 000°36'2020.3 1020.1
2018-Jun-17 21:00N 39°24' E 000°48'1515.2 1020.0
2018-Jun-17 20:00N 39°36' E 001°00'2020.2 1019.5
2018-Jun-17 19:00N 39°54' E 001°12'2020.2 1019.0
2018-Jun-17 18:00N 40°12' E 001°24'2020.2 1019.2
2018-Jun-17 17:00N 40°30' E 001°36'2020.2 1018.8
2018-Jun-17 16:00N 40°48' E 001°48'2020.2 1018.4
2018-Jun-17 15:00N 41°06' E 002°00'1515.0 1019.3
2018-Jun-17 14:00N 41°18' E 002°12'6 2.0 1019.9
2018-Jun-17 11:00N 41°24' E 002°12'8 7.5 1020.4
2018-Jun-17 10:00N 41°18' E 002°18'1818.1 1019.8
2018-Jun-17 09:00N 41°30' E 002°36'2221.6 1019.9
2018-Jun-17 08:00N 41°42' E 003°00'1818.0 1019.7
2018-Jun-17 07:00N 41°54' E 003°18'2222.4 1019.4
2018-Jun-17 06:00N 42°12' E 003°36'2121.4 1017.7
2018-Jun-17 05:00N 42°24' E 004°00'1918.7 1015.3
2018-Jun-17 04:00N 42°30' E 004°24'1918.7 1015.1
2018-Jun-17 03:00N 42°36' E 004°48'1918.6 1013.9
2018-Jun-17 02:00N 42°42' E 005°12'1918.6 1012.6
2018-Jun-17 01:00N 42°48' E 005°36'2322.8 1012.0
2018-Jun-17 00:00N 42°54' E 006°06'1918.6 1012.0
2018-Jun-16 23:00N 43°00' E 006°30'2121.2 1012.8
2018-Jun-16 22:00N 43°12' E 006°54'1817.8 1012.6
2018-Jun-16 21:00N 43°24' E 007°12'2121.1 1012.3
2018-Jun-16 20:00N 43°36' E 007°36'2121.1 1012.2
2018-Jun-16 19:00N 43°48' E 008°00'2121.0 1011.2
2018-Jun-16 18:00N 44°00' E 008°24'1817.6 1010.9
2018-Jun-16 17:00N 44°12' E 008°42'15 1.5 1012.0
2018-Jun-16 07:00N 44°24' E 008°54'6 6.0 1013.3
2018-Jun-16 06:00N 44°18' E 008°54'1817.6 1012.6
2018-Jun-16 05:00N 44°06' E 008°36'2121.0 1012.3
2018-Jun-16 04:00N 43°54' E 008°12'1817.7 1012.0
2018-Jun-16 03:00N 43°42' E 007°54'2121.1 1011.2
2018-Jun-16 02:00N 43°30' E 007°30'1817.7 1011.7
2018-Jun-16 01:00N 43°18' E 007°12'2121.2 1011.5
2018-Jun-16 00:00N 43°06' E 006°48'1817.8 1011.5
2018-Jun-15 23:00N 42°54' E 006°30'1918.6 1011.9
2018-Jun-15 22:00N 42°48' E 006°06'1918.6 1012.0
2018-Jun-15 21:00N 42°42' E 005°42'2525.1 1012.5
2018-Jun-15 20:00N 42°30' E 005°12'1918.7 1012.7
2018-Jun-15 19:00N 42°24' E 004°48'2121.4 1013.1
2018-Jun-15 18:00N 42°12' E 004°24'1918.8 1013.5
2018-Jun-15 17:00N 42°06' E 004°00'1918.8 1014.3
2018-Jun-15 16:00N 42°00' E 003°36'2221.5 1013.9
2018-Jun-15 15:00N 41°48' E 003°12'1818.0 1015.0
2018-Jun-15 14:00N 41°36' E 002°54'2221.6 1015.0
2018-Jun-15 13:00N 41°24' E 002°30'1514.8 1015.1
2018-Jun-15 12:00N 41°18' E 002°12'6 2.0 1015.2
2018-Jun-15 09:00N 41°24' E 002°12'1212.0 1015.7
2018-Jun-15 08:00N 41°12' E 002°12'0 0.0 1015.5
2018-Jun-15 07:00N 41°12' E 002°12'8 7.5 1015.0
2018-Jun-15 06:00N 41°06' E 002°06'8 7.5 1014.8
2018-Jun-15 05:00N 41°00' E 002°00'   1014.2

Dump ship's entire track history